createdAt,value
2022-09-23T00:00:20.182Z,95.33
2022-09-23T00:03:22.494Z,95.21
2022-09-23T00:06:25.458Z,95.42
2022-09-23T00:09:27.676Z,95.56
2022-09-23T00:12:29.861Z,95.71
2022-09-23T00:15:37.917Z,96.32
2022-09-23T00:18:42.118Z,96.49
2022-09-23T00:21:44.395Z,96.32
2022-09-23T00:24:46.611Z,96.18
2022-09-23T00:27:48.783Z,95.52
2022-09-23T00:30:51.363Z,94.80
2022-09-23T00:33:59.356Z,94.70
2022-09-23T00:37:01.534Z,94.11
2022-09-23T00:40:04.049Z,94.29
2022-09-23T00:43:06.243Z,94.43
2022-09-23T00:46:11.589Z,94.88
2022-09-23T00:49:29.472Z,94.75
2022-09-23T00:52:32.301Z,94.50
2022-09-23T00:55:46.147Z,94.06
2022-09-23T00:58:49.592Z,94.32
2022-09-23T01:01:57.214Z,95.18
2022-09-23T01:05:03.260Z,95.88
2022-09-23T01:08:07.084Z,96.43
2022-09-23T01:11:23.853Z,96.47
2022-09-23T01:14:52.830Z,96.09
2022-09-23T01:18:16.610Z,95.75
2022-09-23T01:21:39.115Z,94.79
2022-09-23T01:24:51.108Z,94.65
2022-09-23T01:28:24.100Z,94.30
2022-09-23T01:31:46.147Z,95.33
2022-09-23T01:34:58.955Z,96.25
2022-09-23T01:38:17.145Z,95.37
2022-09-23T01:42:09.623Z,94.72
2022-09-23T01:45:17.247Z,94.25
2022-09-23T01:48:26.802Z,94.28
2022-09-23T01:51:43.350Z,93.99
2022-09-23T01:54:54.839Z,94.68
2022-09-23T01:58:05.922Z,95.35
2022-09-23T02:01:11.403Z,95.68
2022-09-23T02:04:22.343Z,95.29
2022-09-23T02:07:31.030Z,95.07
2022-09-23T02:10:41.028Z,94.66
2022-09-23T02:14:00.229Z,93.82
2022-09-23T02:17:09.586Z,93.94
2022-09-23T02:20:15.832Z,95.01
2022-09-23T02:23:50.630Z,95.42
2022-09-23T02:27:03.188Z,96.58
2022-09-23T02:30:22.251Z,96.59
2022-09-23T02:33:43.436Z,96.14
2022-09-23T02:37:06.527Z,95.51
2022-09-23T02:40:13.821Z,95.40
2022-09-23T02:43:57.693Z,95.34
2022-09-23T02:47:00.509Z,95.73
2022-09-23T02:50:06.402Z,96.19
2022-09-23T02:53:08.747Z,96.68
2022-09-23T02:56:20.171Z,97.54
2022-09-23T02:59:23.770Z,96.69
2022-09-23T03:02:49.259Z,95.90
2022-09-23T03:05:56.461Z,95.69
2022-09-23T03:09:21.955Z,95.78
2022-09-23T03:12:30.452Z,95.74
2022-09-23T03:15:59.583Z,95.78
2022-09-23T03:19:24.167Z,96.30
2022-09-23T03:22:39.367Z,95.82
2022-09-23T03:25:45.788Z,95.75
2022-09-23T03:28:50.300Z,97.18
2022-09-23T03:31:53.827Z,97.02
2022-09-23T03:34:58.956Z,97.84
2022-09-23T03:38:16.885Z,97.22
2022-09-23T03:41:29.002Z,97.00
2022-09-23T03:44:37.798Z,97.54
2022-09-23T03:47:40.594Z,97.53
2022-09-23T03:50:42.794Z,97.33
2022-09-23T03:53:44.976Z,97.30
2022-09-23T03:56:50.786Z,97.15
2022-09-23T03:59:53.087Z,97.54
2022-09-23T04:02:55.304Z,97.03
2022-09-23T04:05:57.488Z,96.50
2022-09-23T04:08:59.891Z,96.63
2022-09-23T04:12:03.560Z,97.03
2022-09-23T04:15:06.358Z,96.45
2022-09-23T04:18:09.321Z,96.13
2022-09-23T04:21:11.635Z,95.88
2022-09-23T04:24:14.835Z,95.83
2022-09-23T04:27:17.001Z,96.22
2022-09-23T04:30:19.634Z,96.37
2022-09-23T04:33:27.995Z,96.02
2022-09-23T04:36:30.396Z,96.19
2022-09-23T04:39:32.801Z,96.03
2022-09-23T04:42:34.986Z,95.79
2022-09-23T04:45:37.165Z,95.62
2022-09-23T04:48:41.468Z,95.74
2022-09-23T04:51:43.757Z,95.95
2022-09-23T04:54:46.027Z,95.94
2022-09-23T04:57:48.298Z,96.14
2022-09-23T05:00:50.612Z,95.91
2022-09-23T05:03:56.337Z,95.55
2022-09-23T05:07:02.920Z,95.44
2022-09-23T05:10:06.296Z,95.94
2022-09-23T05:13:09.216Z,96.20
2022-09-23T05:16:12.550Z,94.40
2022-09-23T05:19:15.475Z,94.32
2022-09-23T05:22:17.623Z,94.13
2022-09-23T05:25:19.796Z,94.01
2022-09-23T05:28:22.258Z,93.69
2022-09-23T05:31:26.937Z,92.57
2022-09-23T05:34:29.109Z,91.93
2022-09-23T05:37:33.076Z,91.01
2022-09-23T05:40:37.528Z,90.91
2022-09-23T05:43:41.012Z,90.17
2022-09-23T05:46:43.266Z,88.66
2022-09-23T05:49:59.011Z,87.63
2022-09-23T05:53:02.016Z,86.28
2022-09-23T05:59:12.296Z,84.64
2022-09-23T06:02:15.197Z,84.23
2022-09-23T06:05:17.553Z,83.25
2022-09-23T06:08:20.286Z,82.23
2022-09-23T06:11:22.562Z,80.92
2022-09-23T06:14:25.647Z,80.13
2022-09-23T06:17:27.988Z,79.05
2022-09-23T06:20:33.576Z,76.20
2022-09-23T06:23:38.955Z,74.92
2022-09-23T06:26:45.259Z,74.54
2022-09-23T06:29:47.432Z,72.81
2022-09-23T06:32:57.137Z,70.97
2022-09-23T06:36:05.234Z,70.74
2022-09-23T06:39:09.800Z,69.17
2022-09-23T06:42:15.941Z,68.21
2022-09-23T06:45:21.431Z,65.22
2022-09-23T06:48:24.785Z,64.71
2022-09-23T06:51:26.937Z,62.50
2022-09-23T06:54:30.778Z,61.86
2022-09-23T06:57:33.292Z,58.97
2022-09-23T07:00:40.788Z,57.16
2022-09-23T07:03:44.699Z,54.99
2022-09-23T07:06:47.852Z,55.25
2022-09-23T07:09:50.191Z,55.57
2022-09-23T07:12:53.145Z,54.25
2022-09-23T07:15:58.372Z,53.55
2022-09-23T07:19:03.449Z,51.39
2022-09-23T07:22:05.744Z,51.18
2022-09-23T07:25:08.040Z,50.45
2022-09-23T07:28:10.428Z,50.17
2022-09-23T07:31:19.620Z,50.49
2022-09-23T07:34:27.619Z,49.98
2022-09-23T07:37:29.782Z,48.98
2022-09-23T07:40:32.005Z,50.37
2022-09-23T07:43:34.778Z,49.05
2022-09-23T07:46:38.093Z,49.19
2022-09-23T07:49:42.547Z,48.54
2022-09-23T07:52:47.213Z,48.63
2022-09-23T07:56:06.442Z,51.03
2022-09-23T07:59:15.606Z,54.21
2022-09-23T08:02:24.826Z,54.46
2022-09-23T08:05:27.127Z,56.18
2022-09-23T08:08:30.728Z,55.59
2022-09-23T08:11:38.579Z,57.21
2022-09-23T08:14:43.975Z,59.66
2022-09-23T08:17:46.417Z,60.56
2022-09-23T08:20:48.698Z,62.98
2022-09-23T08:23:55.727Z,62.39
2022-09-23T08:27:07.076Z,62.44
2022-09-23T08:30:14.108Z,62.13
2022-09-23T08:33:23.343Z,61.94
2022-09-23T08:36:31.099Z,63.87
2022-09-23T08:39:38.880Z,61.73
2022-09-23T08:42:46.818Z,60.47
2022-09-23T08:45:51.517Z,56.28
2022-09-23T08:48:55.081Z,53.16
2022-09-23T08:52:08.349Z,51.02
2022-09-23T08:55:13.730Z,49.48
2022-09-23T08:58:35.193Z,47.37
2022-09-23T09:01:48.208Z,46.16
2022-09-23T09:04:57.005Z,45.12
2022-09-23T09:08:04.663Z,43.88
2022-09-23T09:11:14.796Z,44.74
2022-09-23T09:14:25.559Z,47.89
2022-09-23T09:17:46.980Z,50.40
2022-09-23T09:21:16.632Z,50.49
2022-09-23T09:24:38.791Z,51.33
2022-09-23T09:27:41.992Z,50.52
2022-09-23T09:30:48.292Z,53.86
2022-09-23T09:34:06.368Z,51.79
2022-09-23T09:37:27.540Z,51.73
2022-09-23T09:40:33.024Z,52.17
2022-09-23T09:43:38.863Z,53.40
2022-09-23T09:46:56.865Z,53.47
2022-09-23T09:50:07.894Z,52.65
2022-09-23T09:53:24.756Z,53.80
2022-09-23T09:56:37.207Z,52.60
2022-09-23T09:59:44.132Z,53.33
2022-09-23T10:02:47.383Z,51.50
2022-09-23T10:05:52.231Z,51.75
2022-09-23T10:09:18.962Z,52.30
2022-09-23T10:12:25.339Z,50.82
2022-09-23T10:15:44.975Z,50.00
2022-09-23T10:18:47.278Z,49.64
2022-09-23T10:21:56.947Z,46.38
2022-09-23T10:25:20.906Z,47.61
2022-09-23T10:28:38.572Z,45.46
2022-09-23T10:31:41.756Z,41.99
2022-09-23T10:34:46.730Z,38.29
2022-09-23T10:37:51.783Z,35.51
2022-09-23T10:41:14.070Z,35.14
2022-09-23T10:45:16.220Z,34.57
2022-09-23T10:48:24.728Z,33.72
2022-09-23T10:51:43.678Z,36.07
2022-09-23T10:54:59.306Z,33.03
2022-09-23T10:58:27.631Z,32.68
2022-09-23T11:02:02.291Z,34.75
2022-09-23T11:05:36.078Z,37.21
2022-09-23T11:08:53.577Z,37.37
2022-09-23T11:12:06.779Z,33.60
2022-09-23T11:15:37.618Z,32.76
2022-09-23T11:19:32.404Z,30.58
2022-09-23T11:22:55.799Z,32.63
2022-09-23T11:26:13.424Z,32.20
2022-09-23T11:29:30.140Z,31.36
2022-09-23T11:32:47.997Z,32.62
2022-09-23T11:36:10.757Z,36.87
2022-09-23T11:39:22.456Z,32.36
2022-09-23T11:42:32.929Z,30.17
2022-09-23T11:45:40.589Z,28.53
2022-09-23T11:49:06.414Z,29.83
2022-09-23T11:52:11.784Z,27.25
2022-09-23T11:55:23.027Z,25.90
2022-09-23T11:58:35.390Z,28.60
2022-09-23T12:01:53.354Z,29.57
2022-09-23T12:05:03.402Z,33.32
2022-09-23T12:08:25.563Z,31.88
2022-09-23T12:11:59.089Z,28.07
2022-09-23T12:15:30.910Z,32.49
2022-09-23T12:18:47.577Z,33.37
2022-09-23T12:22:05.093Z,34.06
2022-09-23T12:25:32.005Z,37.84
2022-09-23T12:28:39.551Z,36.91
2022-09-23T12:31:46.710Z,37.58
2022-09-23T12:34:52.120Z,37.98
2022-09-23T12:37:54.516Z,42.52
2022-09-23T12:40:57.179Z,47.13
2022-09-23T12:44:15.622Z,44.59
2022-09-23T12:47:28.921Z,37.03
2022-09-23T12:50:50.800Z,34.06
2022-09-23T12:54:21.680Z,35.04
2022-09-23T12:57:35.810Z,30.89
2022-09-23T13:00:38.016Z,28.14
2022-09-23T13:04:16.721Z,26.78
2022-09-23T13:07:32.203Z,26.78
2022-09-23T13:10:44.125Z,25.30
2022-09-23T13:13:49.045Z,24.97
2022-09-23T13:16:51.682Z,26.26
2022-09-23T13:20:03.765Z,25.99
2022-09-23T13:23:27.343Z,26.02
2022-09-23T13:26:32.374Z,26.47
2022-09-23T13:29:44.160Z,24.39
2022-09-23T13:32:52.185Z,25.44
2022-09-23T13:36:00.819Z,24.89
2022-09-23T13:39:16.704Z,25.28
2022-09-23T13:42:28.644Z,25.23
2022-09-23T13:45:32.216Z,24.71
2022-09-23T13:48:34.518Z,24.45
2022-09-23T13:51:36.822Z,24.26
2022-09-23T13:54:51.088Z,24.17
2022-09-23T13:58:05.489Z,25.18
2022-09-23T14:01:10.266Z,23.26
2022-09-23T14:04:25.579Z,24.45
2022-09-23T14:07:27.854Z,25.15
2022-09-23T14:10:31.183Z,26.08
2022-09-23T14:13:43.519Z,25.47
2022-09-23T14:16:48.979Z,26.30
2022-09-23T14:19:51.569Z,27.74
2022-09-23T14:23:14.765Z,29.51
2022-09-23T14:26:18.164Z,30.83
2022-09-23T14:29:26.199Z,30.64
2022-09-23T14:32:29.925Z,30.90
2022-09-23T14:35:42.373Z,30.12
2022-09-23T14:38:50.967Z,30.03
2022-09-23T14:41:53.291Z,29.02
2022-09-23T14:44:56.065Z,27.25
2022-09-23T14:48:12.824Z,29.56
2022-09-23T14:51:17.219Z,31.17
2022-09-23T14:54:39.425Z,29.33
2022-09-23T14:57:42.913Z,29.51
2022-09-23T15:00:59.963Z,32.80
2022-09-23T15:04:21.781Z,36.54
2022-09-23T15:07:24.104Z,38.48
2022-09-23T15:10:30.195Z,44.41
2022-09-23T15:13:41.862Z,49.34
2022-09-23T15:16:46.152Z,51.55
2022-09-23T15:19:56.745Z,47.65
2022-09-23T15:22:59.034Z,45.55
2022-09-23T15:26:16.939Z,44.32
2022-09-23T15:29:19.197Z,44.38
2022-09-23T15:32:22.099Z,42.66
2022-09-23T15:35:26.623Z,44.69
2022-09-23T15:38:29.072Z,53.08
2022-09-23T15:41:33.573Z,52.38
2022-09-23T15:44:36.851Z,51.73
2022-09-23T15:47:39.125Z,53.52
2022-09-23T15:50:42.827Z,55.63
2022-09-23T15:53:44.993Z,58.95
2022-09-23T15:56:47.873Z,60.79
2022-09-23T15:59:50.032Z,60.78
2022-09-23T16:02:52.505Z,58.73
2022-09-23T16:06:00.669Z,61.62
2022-09-23T16:09:03.388Z,59.23
2022-09-23T16:12:09.201Z,60.03
2022-09-23T16:15:18.015Z,60.64
2022-09-23T16:18:20.239Z,62.31
2022-09-23T16:21:25.841Z,63.69
2022-09-23T16:24:29.221Z,64.19
2022-09-23T16:27:31.515Z,66.78
2022-09-23T16:30:34.396Z,67.13
2022-09-23T16:33:36.661Z,69.14
2022-09-23T16:36:43.319Z,70.19
2022-09-23T16:39:45.570Z,70.57
2022-09-23T16:42:48.779Z,68.78
2022-09-23T16:45:51.031Z,70.73
2022-09-23T16:48:53.586Z,73.08
2022-09-23T16:51:56.276Z,73.88
2022-09-23T16:54:58.492Z,74.00
2022-09-23T16:58:00.719Z,74.74
2022-09-23T17:01:22.297Z,74.96
2022-09-23T17:04:24.752Z,76.50
2022-09-23T17:07:27.108Z,77.98
2022-09-23T17:10:29.616Z,79.68
2022-09-23T17:13:32.521Z,80.28
2022-09-23T17:16:35.254Z,80.05
2022-09-23T17:19:38.344Z,80.44
2022-09-23T17:22:41.892Z,80.09
2022-09-23T17:25:48.118Z,80.82
2022-09-23T17:28:51.856Z,79.65
2022-09-23T17:31:54.356Z,79.71
2022-09-23T17:34:57.444Z,80.23
2022-09-23T17:37:59.613Z,80.82
2022-09-23T17:41:02.203Z,81.79
2022-09-23T17:44:04.783Z,81.95
2022-09-23T17:47:06.982Z,82.11
2022-09-23T17:50:09.395Z,83.61
2022-09-23T17:53:11.593Z,84.18
2022-09-23T17:56:19.469Z,84.56
2022-09-23T17:59:21.671Z,84.66
2022-09-23T18:02:23.886Z,85.00
2022-09-23T18:05:26.127Z,84.30
2022-09-23T18:08:30.809Z,85.27
2022-09-23T18:11:44.339Z,86.79
2022-09-23T18:14:47.762Z,88.18
2022-09-23T18:17:49.970Z,88.99
2022-09-23T18:20:52.128Z,88.79
2022-09-23T18:23:57.309Z,88.43
2022-09-23T18:27:06.480Z,87.74
2022-09-23T18:30:09.354Z,89.96
2022-09-23T18:33:11.508Z,89.38
2022-09-23T18:36:14.310Z,89.58
2022-09-23T18:39:17.228Z,89.71
2022-09-23T18:42:20.433Z,89.42
2022-09-23T18:45:22.633Z,89.57
2022-09-23T18:48:44.157Z,88.81
2022-09-23T18:52:03.664Z,88.47
2022-09-23T18:55:06.522Z,89.64
2022-09-23T18:58:10.388Z,89.49
2022-09-23T19:01:12.769Z,89.79
2022-09-23T19:04:17.545Z,89.56
2022-09-23T19:07:19.745Z,89.68
2022-09-23T19:10:22.187Z,90.16
2022-09-23T19:13:24.442Z,89.30
2022-09-23T19:16:27.249Z,90.53
2022-09-23T19:19:30.177Z,90.65
2022-09-23T19:22:32.773Z,90.60
2022-09-23T19:25:36.359Z,90.70
2022-09-23T19:28:39.189Z,89.75
2022-09-23T19:31:42.190Z,90.01
2022-09-23T19:34:45.797Z,90.46
2022-09-23T19:37:48.210Z,90.61
2022-09-23T19:40:52.165Z,90.68
2022-09-23T19:43:55.496Z,90.27
2022-09-23T19:46:57.763Z,92.27
2022-09-23T19:50:00.040Z,92.76
2022-09-23T19:53:04.780Z,92.03
2022-09-23T19:56:07.080Z,91.65
2022-09-23T19:59:09.489Z,91.70
2022-09-23T20:02:12.657Z,92.09
2022-09-23T20:05:19.708Z,92.17
2022-09-23T20:08:23.801Z,91.22
2022-09-23T20:11:28.552Z,91.31
2022-09-23T20:14:31.570Z,90.68
2022-09-23T20:17:33.756Z,90.63
2022-09-23T20:20:36.552Z,90.95
2022-09-23T20:23:38.737Z,91.39
2022-09-23T20:27:19.359Z,90.46
2022-09-23T20:30:21.605Z,90.37
2022-09-23T20:33:23.811Z,90.52
2022-09-23T20:36:29.535Z,91.03
2022-09-23T20:39:31.863Z,91.35
2022-09-23T20:42:35.090Z,92.27
2022-09-23T20:45:50.210Z,92.32
2022-09-23T20:48:54.142Z,92.40
2022-09-23T20:51:56.346Z,92.07
2022-09-23T20:54:58.665Z,91.35
2022-09-23T20:58:02.233Z,91.52
2022-09-23T21:01:10.481Z,92.34
2022-09-23T21:04:12.848Z,92.86
2022-09-23T21:07:15.012Z,93.36
2022-09-23T21:10:17.210Z,93.34
2022-09-23T21:13:19.372Z,93.26
2022-09-23T21:16:22.929Z,93.09
2022-09-23T21:19:25.316Z,91.69
2022-09-23T21:22:27.512Z,92.02
2022-09-23T21:25:30.628Z,92.60
2022-09-23T21:28:40.994Z,92.94
2022-09-23T21:31:43.212Z,92.58
2022-09-23T21:34:45.795Z,93.26
2022-09-23T21:37:48.093Z,93.73
2022-09-23T21:40:58.414Z,93.32
2022-09-23T21:44:04.634Z,93.91
2022-09-23T21:47:07.084Z,94.22
2022-09-23T21:50:09.642Z,94.16
2022-09-23T21:53:11.844Z,93.97
2022-09-23T21:56:20.449Z,93.58
2022-09-23T21:59:23.285Z,93.88
2022-09-23T22:02:25.482Z,93.90
2022-09-23T22:05:27.678Z,94.45
2022-09-23T22:08:36.864Z,94.61
2022-09-23T22:12:02.876Z,94.34
2022-09-23T22:15:07.094Z,93.86
2022-09-23T22:18:09.288Z,93.69
2022-09-23T22:21:11.608Z,93.45
2022-09-23T22:24:13.808Z,93.38
2022-09-23T22:27:18.511Z,94.01
2022-09-23T22:30:38.917Z,94.35
2022-09-23T22:33:41.096Z,94.38
2022-09-23T22:36:43.307Z,94.65
2022-09-23T22:39:45.892Z,93.91
2022-09-23T22:42:48.730Z,94.02
2022-09-23T22:45:51.563Z,94.12
2022-09-23T22:48:53.851Z,94.09
2022-09-23T22:51:56.014Z,94.15
2022-09-23T22:54:58.287Z,94.24
2022-09-23T22:58:15.319Z,94.02
2022-09-23T23:01:23.828Z,94.04
2022-09-23T23:04:26.062Z,94.87
2022-09-23T23:07:28.260Z,94.87
2022-09-23T23:10:31.141Z,95.02
2022-09-23T23:13:33.943Z,94.27
2022-09-23T23:16:36.266Z,93.23
2022-09-23T23:19:38.632Z,92.79
2022-09-23T23:22:40.863Z,93.34
2022-09-23T23:25:43.056Z,93.87
2022-09-23T23:28:45.769Z,92.75
2022-09-23T23:31:48.591Z,92.08
2022-09-23T23:34:50.827Z,92.12
2022-09-23T23:37:53.016Z,91.42
2022-09-23T23:40:56.333Z,92.39
2022-09-23T23:44:00.253Z,92.89
2022-09-23T23:47:02.608Z,93.47
2022-09-23T23:50:05.188Z,94.07
2022-09-23T23:53:09.081Z,94.49
2022-09-23T23:56:19.597Z,94.23
2022-09-23T23:59:21.866Z,94.41
